createdAt,value
2018-12-02T00:01:10.804Z,31.63
2018-12-02T00:03:47.262Z,32.27
2018-12-02T00:06:19.953Z,32.15
2018-12-02T00:08:52.450Z,33.00
2018-12-02T00:11:24.884Z,31.23
2018-12-02T00:13:57.115Z,32.67
2018-12-02T00:16:29.374Z,31.20
2018-12-02T00:19:01.874Z,28.97
2018-12-02T00:21:34.233Z,32.03
2018-12-02T00:24:06.491Z,30.83
2018-12-02T00:26:38.837Z,32.90
2018-12-02T00:29:11.069Z,31.80
2018-12-02T00:31:43.476Z,31.13
2018-12-02T00:34:15.700Z,34.70
2018-12-02T00:36:48.268Z,34.83
2018-12-02T00:39:20.592Z,32.00
2018-12-02T00:41:52.895Z,33.10
2018-12-02T00:44:25.208Z,33.53
2018-12-02T00:46:57.698Z,32.87
2018-12-02T00:49:30.064Z,36.47
2018-12-02T00:52:02.380Z,38.33
2018-12-02T00:54:34.684Z,40.13
2018-12-02T00:57:07.156Z,40.43
2018-12-02T00:59:39.596Z,39.73
2018-12-02T01:02:12.585Z,36.37
2018-12-02T01:04:44.875Z,37.70
2018-12-02T01:07:17.173Z,41.37
2018-12-02T01:09:49.444Z,37.63
2018-12-02T01:12:21.678Z,39.63
2018-12-02T01:14:53.943Z,38.23
2018-12-02T01:17:26.360Z,40.77
2018-12-02T01:19:58.731Z,42.57
2018-12-02T01:22:31.096Z,43.00
2018-12-02T01:25:03.317Z,42.40
2018-12-02T01:27:35.640Z,45.90
2018-12-02T01:30:11.864Z,43.77
2018-12-02T01:32:44.261Z,44.13
2018-12-02T01:35:17.565Z,41.43
2018-12-02T01:37:50.473Z,44.73
2018-12-02T01:40:26.465Z,47.70
2018-12-02T01:42:58.765Z,44.33
2018-12-02T01:45:31.023Z,48.50
2018-12-02T01:48:03.315Z,46.47
2018-12-02T01:50:35.581Z,43.27
2018-12-02T01:53:08.217Z,43.30
2018-12-02T01:55:40.516Z,40.50
2018-12-02T01:58:13.713Z,39.40
2018-12-02T02:00:46.233Z,40.50
2018-12-02T02:03:18.536Z,41.90
2018-12-02T02:05:50.767Z,48.07
2018-12-02T02:08:23.417Z,44.40
2018-12-02T02:10:55.649Z,45.50
2018-12-02T02:13:28.301Z,42.73
2018-12-02T02:16:01.035Z,48.40
2018-12-02T02:18:33.589Z,48.07
2018-12-02T02:21:06.972Z,48.33
2018-12-02T02:23:39.538Z,42.70
2018-12-02T02:26:12.356Z,41.60
2018-12-02T02:28:44.630Z,42.80
2018-12-02T02:31:16.875Z,46.43
2018-12-02T02:33:49.660Z,45.67
2018-12-02T02:36:21.861Z,41.53
2018-12-02T02:38:54.949Z,43.60
2018-12-02T02:41:27.932Z,44.93
2018-12-02T02:44:00.206Z,39.97
2018-12-02T02:46:32.459Z,40.20
2018-12-02T02:49:04.728Z,44.07
2018-12-02T02:51:37.116Z,40.73
2018-12-02T02:54:09.994Z,45.17
2018-12-02T02:56:42.354Z,44.70
2018-12-02T02:59:14.646Z,44.93
2018-12-02T03:01:47.322Z,50.00
2018-12-02T03:04:19.617Z,47.00
2018-12-02T03:06:51.909Z,46.70
2018-12-02T03:09:24.357Z,43.63
2018-12-02T03:11:56.612Z,52.30
2018-12-02T03:14:29.051Z,47.73
2018-12-02T03:17:01.248Z,47.07
2018-12-02T03:19:33.760Z,44.37
2018-12-02T03:22:06.242Z,45.97
2018-12-02T03:24:38.630Z,48.60
2018-12-02T03:27:10.823Z,51.13
2018-12-02T03:29:43.152Z,50.13
2018-12-02T03:32:15.355Z,47.70
2018-12-02T03:34:47.696Z,45.40
2018-12-02T03:37:19.892Z,47.80
2018-12-02T03:39:52.260Z,48.63
2018-12-02T03:42:27.020Z,45.77
2018-12-02T03:44:59.255Z,45.33
2018-12-02T03:47:31.481Z,46.20
2018-12-02T03:50:03.717Z,47.00
2018-12-02T03:52:35.934Z,45.93
2018-12-02T03:55:09.405Z,42.13
2018-12-02T03:57:41.668Z,38.13
2018-12-02T04:00:16.361Z,37.13
2018-12-02T04:02:48.751Z,41.60
2018-12-02T04:05:22.180Z,39.73
2018-12-02T04:07:54.812Z,40.30
2018-12-02T04:10:27.198Z,37.77
2018-12-02T04:12:59.800Z,40.43
2018-12-02T04:15:32.334Z,40.63
2018-12-02T04:18:04.673Z,38.00
2018-12-02T04:20:37.098Z,36.77
2018-12-02T04:23:10.030Z,38.13
2018-12-02T04:25:42.425Z,41.10
2018-12-02T04:28:14.609Z,36.40
2018-12-02T04:30:47.011Z,40.37
2018-12-02T04:33:19.176Z,42.30
2018-12-02T04:35:51.483Z,35.73
2018-12-02T04:38:23.761Z,37.47
2018-12-02T04:40:56.193Z,35.30
2018-12-02T04:43:28.613Z,34.40
2018-12-02T04:46:00.901Z,37.13
2018-12-02T04:48:33.520Z,34.83
2018-12-02T04:51:05.800Z,31.70
2018-12-02T04:53:38.077Z,33.77
2018-12-02T04:56:10.476Z,33.17
2018-12-02T04:58:42.752Z,33.07
2018-12-02T05:01:15.051Z,29.37
2018-12-02T05:03:47.512Z,29.87
2018-12-02T05:06:19.788Z,31.60
2018-12-02T05:08:52.158Z,29.10
2018-12-02T05:11:24.538Z,32.57
2018-12-02T05:13:57.038Z,33.00
2018-12-02T05:16:29.622Z,27.10
2018-12-02T05:19:03.337Z,26.53
2018-12-02T05:21:35.753Z,25.87
2018-12-02T05:24:08.339Z,24.00
2018-12-02T05:26:40.729Z,21.10
2018-12-02T05:29:12.917Z,22.73
2018-12-02T05:31:45.224Z,22.97
2018-12-02T05:34:17.460Z,21.87
2018-12-02T05:36:49.816Z,21.27
2018-12-02T05:39:21.998Z,20.53
2018-12-02T05:41:58.732Z,19.03
2018-12-02T05:44:31.291Z,20.57
2018-12-02T05:47:04.617Z,20.77
2018-12-02T05:49:36.872Z,20.00
2018-12-02T05:52:09.230Z,19.47
2018-12-02T05:54:41.462Z,18.90
2018-12-02T05:57:13.842Z,17.03
2018-12-02T05:59:46.082Z,18.93
2018-12-02T06:02:19.069Z,18.27
2018-12-02T06:04:51.422Z,16.47
2018-12-02T06:07:24.486Z,15.57
2018-12-02T06:09:56.764Z,16.27
2018-12-02T06:12:30.092Z,14.93
2018-12-02T06:15:02.277Z,15.37
2018-12-02T06:17:34.589Z,15.20
2018-12-02T06:20:08.185Z,16.13
2018-12-02T06:22:40.507Z,15.43
2018-12-02T06:25:13.284Z,17.10
2018-12-02T06:27:45.772Z,15.43
2018-12-02T06:30:20.928Z,17.90
2018-12-02T06:32:57.070Z,16.27
2018-12-02T06:35:29.289Z,16.83
2018-12-02T06:38:02.627Z,17.60
2018-12-02T06:40:34.923Z,16.93
2018-12-02T06:43:07.380Z,17.47
2018-12-02T06:45:39.891Z,16.30
2018-12-02T06:48:12.252Z,17.20
2018-12-02T06:50:44.597Z,16.67
2018-12-02T06:53:16.996Z,16.83
2018-12-02T06:56:02.104Z,16.33
2018-12-02T06:58:55.333Z,17.70
2018-12-02T07:01:38.306Z,17.10
2018-12-02T07:04:25.681Z,17.43
2018-12-02T07:06:58.146Z,17.33
2018-12-02T07:09:30.513Z,17.60
2018-12-02T07:12:02.761Z,18.67
2018-12-02T07:14:35.156Z,18.10
2018-12-02T07:17:07.401Z,20.30
2018-12-02T07:19:44.617Z,19.33
2018-12-02T07:22:27.520Z,21.90
2018-12-02T07:25:02.483Z,18.77
2018-12-02T07:27:34.828Z,17.90
2018-12-02T07:30:08.069Z,18.43
2018-12-02T07:32:40.337Z,18.97
2018-12-02T07:35:14.464Z,18.43
2018-12-02T07:37:49.748Z,18.60
2018-12-02T07:40:28.696Z,16.10
2018-12-02T07:43:00.920Z,18.57
2018-12-02T07:45:33.964Z,16.93
2018-12-02T07:48:06.130Z,17.97
2018-12-02T07:50:38.495Z,20.83
2018-12-02T07:53:10.692Z,21.13
2018-12-02T07:55:43.055Z,21.40
2018-12-02T07:58:18.274Z,22.07
2018-12-02T08:00:50.746Z,20.23
2018-12-02T08:03:22.952Z,20.87
2018-12-02T08:05:55.298Z,20.43
2018-12-02T08:08:27.549Z,20.03
2018-12-02T08:10:59.901Z,20.93
2018-12-02T08:13:32.177Z,22.00
2018-12-02T08:16:04.608Z,20.90
2018-12-02T08:18:36.860Z,19.40
2018-12-02T08:21:09.183Z,22.03
2018-12-02T08:23:41.480Z,21.23
2018-12-02T08:26:13.839Z,21.73
2018-12-02T08:28:46.560Z,20.43
2018-12-02T08:31:18.908Z,21.17
2018-12-02T08:33:51.124Z,22.57
2018-12-02T08:36:23.412Z,19.30
2018-12-02T08:38:55.656Z,20.40
2018-12-02T08:41:27.947Z,18.50
2018-12-02T08:44:00.077Z,17.90
2018-12-02T08:46:32.431Z,19.57
2018-12-02T08:49:04.794Z,17.60
2018-12-02T08:51:37.068Z,19.77
2018-12-02T08:54:09.202Z,17.83
2018-12-02T08:56:41.765Z,19.43
2018-12-02T08:59:13.937Z,19.47
2018-12-02T09:01:46.227Z,17.13
2018-12-02T09:04:18.376Z,17.23
2018-12-02T09:06:50.765Z,17.00
2018-12-02T09:09:23.182Z,18.03
2018-12-02T09:11:55.551Z,17.03
2018-12-02T09:14:27.741Z,18.70
2018-12-02T09:17:00.812Z,18.17
2018-12-02T09:19:32.436Z,19.63
2018-12-02T09:22:04.782Z,18.40
2018-12-02T09:24:37.032Z,16.87
2018-12-02T09:27:09.435Z,18.47
2018-12-02T09:29:41.914Z,17.57
2018-12-02T09:32:14.138Z,17.57
2018-12-02T09:34:46.314Z,16.77
2018-12-02T09:37:18.593Z,18.33
2018-12-02T09:39:50.802Z,16.53
2018-12-02T09:42:23.172Z,17.33
2018-12-02T09:44:55.618Z,17.40
2018-12-02T09:47:27.877Z,18.20
2018-12-02T09:50:00.194Z,19.53
2018-12-02T09:52:32.517Z,15.80
2018-12-02T09:55:04.730Z,17.37
2018-12-02T09:57:37.144Z,17.73
2018-12-02T10:00:17.260Z,17.07
2018-12-02T10:02:49.752Z,17.00
2018-12-02T10:05:21.950Z,18.23
2018-12-02T10:07:54.509Z,18.10
2018-12-02T10:10:26.999Z,19.17
2018-12-02T10:13:02.524Z,18.30
2018-12-02T10:15:34.931Z,18.63
2018-12-02T10:18:07.324Z,18.00
2018-12-02T10:20:39.503Z,17.47
2018-12-02T10:23:12.066Z,16.93
2018-12-02T10:25:44.258Z,17.73
2018-12-02T10:28:16.554Z,17.50
2018-12-02T10:30:48.963Z,17.30
2018-12-02T10:33:21.300Z,19.27
2018-12-02T10:35:53.537Z,19.93
2018-12-02T10:38:25.793Z,19.43
2018-12-02T10:40:57.993Z,17.30
2018-12-02T10:43:30.308Z,19.47
2018-12-02T10:46:02.541Z,19.67
2018-12-02T10:48:35.865Z,21.17
2018-12-02T10:51:08.223Z,19.63
2018-12-02T10:53:40.487Z,20.97
2018-12-02T10:56:12.693Z,20.03
2018-12-02T10:58:44.944Z,19.33
2018-12-02T11:01:19.368Z,20.87
2018-12-02T11:03:52.101Z,19.67
2018-12-02T11:06:24.279Z,20.87
2018-12-02T11:08:56.564Z,21.03
2018-12-02T11:11:28.976Z,21.80
2018-12-02T11:14:01.162Z,23.47
2018-12-02T11:16:33.316Z,20.90
2018-12-02T11:19:07.220Z,22.10
2018-12-02T11:21:39.394Z,23.73
2018-12-02T11:24:11.582Z,23.93
2018-12-02T11:26:43.829Z,20.53
2018-12-02T11:29:16.122Z,22.03
2018-12-02T11:31:48.565Z,21.37
2018-12-02T11:34:20.872Z,22.33
2018-12-02T11:36:53.064Z,22.00
2018-12-02T11:39:25.262Z,20.37
2018-12-02T11:41:57.432Z,19.10
2018-12-02T11:44:29.622Z,21.00
2018-12-02T11:47:01.816Z,20.03
2018-12-02T11:49:34.165Z,20.00
2018-12-02T11:52:06.593Z,22.90
2018-12-02T11:54:38.834Z,21.53
2018-12-02T11:57:10.993Z,22.43
2018-12-02T11:59:43.300Z,23.47
2018-12-02T12:02:15.477Z,21.70
2018-12-02T12:04:47.773Z,22.53
2018-12-02T12:07:19.933Z,21.53
2018-12-02T12:09:52.175Z,21.27
2018-12-02T12:12:24.599Z,23.27
2018-12-02T12:14:56.869Z,22.10
2018-12-02T12:17:28.992Z,21.80
2018-12-02T12:20:01.281Z,22.20
2018-12-02T12:22:33.448Z,22.57
2018-12-02T12:25:05.763Z,22.73
2018-12-02T12:27:37.928Z,22.83
2018-12-02T12:30:18.431Z,21.67
2018-12-02T12:32:50.744Z,21.90
2018-12-02T12:35:23.226Z,21.03
2018-12-02T12:37:55.419Z,23.07
2018-12-02T12:40:29.898Z,25.37
2018-12-02T12:43:10.909Z,23.23
2018-12-02T12:45:43.163Z,24.30
2018-12-02T12:48:15.315Z,31.80
2018-12-02T12:50:48.323Z,26.07
2018-12-02T12:53:20.754Z,27.90
2018-12-02T12:55:53.257Z,27.17
2018-12-02T12:58:26.129Z,27.43
2018-12-02T13:00:58.397Z,28.27
2018-12-02T13:03:30.576Z,27.07
2018-12-02T13:06:02.949Z,27.97
2018-12-02T13:08:35.147Z,28.43
2018-12-02T13:11:08.257Z,28.97
2018-12-02T13:13:40.646Z,27.23
2018-12-02T13:16:12.916Z,28.83
2018-12-02T13:18:45.175Z,27.93
2018-12-02T13:21:17.491Z,28.50
2018-12-02T13:23:49.628Z,25.53
2018-12-02T13:26:21.890Z,25.57
2018-12-02T13:28:54.087Z,24.90
2018-12-02T13:31:26.368Z,22.90
2018-12-02T13:33:58.651Z,24.83
2018-12-02T13:36:31.034Z,24.90
2018-12-02T13:39:03.206Z,23.33
2018-12-02T13:41:35.512Z,22.20
2018-12-02T13:44:08.412Z,22.47
2018-12-02T13:46:40.722Z,21.27
2018-12-02T13:49:12.933Z,19.63
2018-12-02T13:51:45.246Z,23.57
2018-12-02T13:54:22.150Z,22.77
2018-12-02T13:56:54.464Z,22.13
2018-12-02T13:59:26.650Z,21.70
2018-12-02T14:01:58.887Z,20.80
2018-12-02T14:04:31.092Z,20.67
2018-12-02T14:07:03.526Z,21.10
2018-12-02T14:09:35.703Z,22.27
2018-12-02T14:12:08.769Z,22.63
2018-12-02T14:14:43.999Z,21.40
2018-12-02T14:17:19.194Z,21.77
2018-12-02T14:19:51.921Z,23.33
2018-12-02T14:22:27.755Z,23.60
2018-12-02T14:25:02.744Z,26.43
2018-12-02T14:27:33.101Z,25.70
2018-12-02T14:30:05.468Z,24.67
2018-12-02T14:32:37.856Z,27.53
2018-12-02T14:35:11.535Z,27.57
2018-12-02T14:37:43.909Z,29.43
2018-12-02T14:40:17.144Z,27.03
2018-12-02T14:42:49.548Z,25.83
2018-12-02T14:45:21.864Z,23.40
2018-12-02T14:47:54.187Z,22.60
2018-12-02T14:50:26.357Z,22.45
2018-12-02T14:52:58.640Z,20.85
2018-12-02T14:55:31.016Z,20.90
2018-12-02T14:58:03.325Z,19.50
2018-12-02T15:00:35.583Z,17.82
2018-12-02T15:03:08.251Z,17.02
2018-12-02T15:05:40.446Z,15.15
2018-12-02T15:08:12.797Z,12.68
2018-12-02T15:10:45.034Z,13.05
2018-12-02T15:13:17.256Z,14.05
2018-12-02T15:15:49.610Z,12.43
2018-12-02T15:18:22.116Z,10.88
2018-12-02T15:20:54.397Z,12.75
2018-12-02T15:23:26.741Z,13.50
2018-12-02T15:25:59.014Z,14.15
2018-12-02T15:28:31.408Z,14.10
2018-12-02T15:31:03.626Z,14.18
2018-12-02T15:33:37.857Z,14.05
2018-12-02T15:36:12.040Z,15.95
2018-12-02T15:38:44.907Z,16.17
2018-12-02T15:41:17.208Z,15.32
2018-12-02T15:43:49.701Z,14.00
2018-12-02T15:46:21.909Z,13.85
2018-12-02T15:48:54.228Z,14.73
2018-12-02T15:51:26.486Z,12.43
2018-12-02T15:53:58.794Z,12.65
2018-12-02T15:56:32.372Z,10.65
2018-12-02T15:59:08.982Z,11.18
2018-12-02T16:01:41.689Z,11.70
2018-12-02T16:04:14.076Z,14.07
2018-12-02T16:06:46.327Z,13.80
2018-12-02T16:09:19.061Z,13.10
2018-12-02T16:11:51.286Z,13.53
2018-12-02T16:14:23.554Z,13.40
2018-12-02T16:16:55.859Z,12.93
2018-12-02T16:19:28.184Z,13.50
2018-12-02T16:22:00.421Z,12.25
2018-12-02T16:24:32.794Z,10.98
2018-12-02T16:27:04.982Z,11.97
2018-12-02T16:29:37.228Z,12.55
2018-12-02T16:32:09.855Z,12.98
2018-12-02T16:34:42.084Z,11.97
2018-12-02T16:37:14.607Z,11.88
2018-12-02T16:39:46.987Z,12.03
2018-12-02T16:42:19.291Z,12.35
2018-12-02T16:44:51.541Z,12.93
2018-12-02T16:47:23.778Z,12.73
2018-12-02T16:49:55.968Z,12.03
2018-12-02T16:52:28.347Z,14.00
2018-12-02T16:55:00.724Z,14.10
2018-12-02T16:57:35.054Z,14.00
2018-12-02T17:00:09.672Z,12.82
2018-12-02T17:02:42.014Z,12.85
2018-12-02T17:05:15.210Z,14.50
2018-12-02T17:07:47.646Z,14.80
2018-12-02T17:10:20.119Z,13.88
2018-12-02T17:12:52.368Z,13.48
2018-12-02T17:15:24.735Z,13.80
2018-12-02T17:17:57.052Z,12.47
2018-12-02T17:20:30.253Z,13.75
2018-12-02T17:23:02.651Z,13.00
2018-12-02T17:25:35.174Z,12.70
2018-12-02T17:28:07.434Z,12.30
2018-12-02T17:30:44.056Z,11.28
2018-12-02T17:33:16.246Z,10.35
2018-12-02T17:35:48.574Z,9.50
2018-12-02T17:38:21.325Z,8.48
2018-12-02T17:40:53.808Z,8.48
2018-12-02T17:43:26.038Z,9.23
2018-12-02T17:45:58.334Z,8.78
2018-12-02T17:48:30.587Z,7.80
2018-12-02T17:51:02.888Z,7.87
2018-12-02T17:53:35.079Z,8.30
2018-12-02T17:56:08.538Z,7.58
2018-12-02T17:58:40.811Z,7.97
2018-12-02T18:01:13.398Z,7.12
2018-12-02T18:03:45.650Z,7.97
2018-12-02T18:06:18.098Z,7.95
2018-12-02T18:08:50.321Z,7.45
2018-12-02T18:11:22.649Z,7.47
2018-12-02T18:13:54.964Z,7.33
2018-12-02T18:16:27.307Z,8.13
2018-12-02T18:18:59.813Z,8.43
2018-12-02T18:21:32.101Z,6.67
2018-12-02T18:24:04.396Z,6.95
2018-12-02T18:26:38.122Z,8.70
2018-12-02T18:29:10.319Z,7.72
2018-12-02T18:31:42.616Z,7.25
2018-12-02T18:34:14.904Z,8.10
2018-12-02T18:36:47.146Z,7.87
2018-12-02T18:39:21.473Z,7.70
2018-12-02T18:41:55.838Z,7.05
2018-12-02T18:44:28.087Z,7.65
2018-12-02T18:47:00.334Z,7.92
2018-12-02T18:49:32.558Z,7.47
2018-12-02T18:52:04.884Z,7.22
2018-12-02T18:54:37.152Z,7.95
2018-12-02T18:57:09.614Z,6.30
2018-12-02T18:59:42.215Z,7.35
2018-12-02T19:02:15.120Z,7.35
2018-12-02T19:04:47.515Z,8.13
2018-12-02T19:07:20.047Z,7.67
2018-12-02T19:09:52.300Z,8.55
2018-12-02T19:12:24.593Z,7.85
2018-12-02T19:14:56.826Z,6.65
2018-12-02T19:17:29.202Z,7.25
2018-12-02T19:20:01.506Z,7.30
2018-12-02T19:22:34.059Z,7.28
2018-12-02T19:25:06.429Z,7.83
2018-12-02T19:27:38.801Z,7.37
2018-12-02T19:30:15.188Z,7.72
2018-12-02T19:32:48.052Z,7.90
2018-12-02T19:35:21.886Z,7.45
2018-12-02T19:37:55.719Z,7.62
2018-12-02T19:40:28.544Z,8.95
2018-12-02T19:43:00.960Z,8.20
2018-12-02T19:45:33.225Z,7.87
2018-12-02T19:48:05.607Z,8.08
2018-12-02T19:50:37.805Z,8.28
2018-12-02T19:53:10.098Z,9.13
2018-12-02T19:55:42.357Z,8.03
2018-12-02T19:58:15.666Z,9.20
2018-12-02T20:00:49.148Z,8.80
2018-12-02T20:03:21.890Z,7.85
2018-12-02T20:05:54.288Z,11.50
2018-12-02T20:08:26.632Z,9.53
2018-12-02T20:10:58.996Z,8.70
2018-12-02T20:13:31.327Z,9.70
2018-12-02T20:16:08.219Z,9.25
2018-12-02T20:18:40.593Z,10.35
2018-12-02T20:21:14.640Z,9.63
2018-12-02T20:23:51.984Z,9.63
2018-12-02T20:26:24.384Z,10.35
2018-12-02T20:28:58.826Z,9.80
2018-12-02T20:31:32.155Z,10.70
2018-12-02T20:34:04.564Z,11.10
2018-12-02T20:36:36.832Z,9.85
2018-12-02T20:39:12.472Z,10.35
2018-12-02T20:41:48.786Z,10.98
2018-12-02T20:44:21.057Z,11.15
2018-12-02T20:46:53.309Z,12.68
2018-12-02T20:49:25.700Z,9.88
2018-12-02T20:51:57.832Z,10.48
2018-12-02T20:54:30.329Z,11.43
2018-12-02T20:57:02.657Z,12.37
2018-12-02T20:59:34.880Z,11.10
2018-12-02T21:02:07.380Z,12.37
2018-12-02T21:04:39.727Z,12.37
2018-12-02T21:07:11.935Z,13.35
2018-12-02T21:09:44.361Z,12.78
2018-12-02T21:12:16.664Z,12.82
2018-12-02T21:14:49.143Z,12.40
2018-12-02T21:17:21.497Z,11.60
2018-12-02T21:19:53.790Z,11.73
2018-12-02T21:22:26.245Z,12.28
2018-12-02T21:24:58.599Z,12.53
2018-12-02T21:27:30.842Z,13.50
2018-12-02T21:30:03.184Z,13.15
2018-12-02T21:32:35.419Z,12.60
2018-12-02T21:35:07.804Z,14.23
2018-12-02T21:37:39.991Z,15.40
2018-12-02T21:40:16.188Z,15.35
2018-12-02T21:42:48.715Z,15.35
2018-12-02T21:45:21.295Z,15.28
2018-12-02T21:47:54.931Z,17.57
2018-12-02T21:50:30.180Z,16.23
2018-12-02T21:53:03.500Z,16.07
2018-12-02T21:55:35.879Z,15.63
2018-12-02T21:58:08.506Z,15.00
2018-12-02T22:00:47.748Z,16.85
2018-12-02T22:03:20.287Z,15.30
2018-12-02T22:05:52.733Z,16.82
2018-12-02T22:08:28.503Z,17.15
2018-12-02T22:11:00.836Z,17.17
2018-12-02T22:13:33.016Z,16.23
2018-12-02T22:16:05.867Z,15.58
2018-12-02T22:18:38.097Z,18.87
2018-12-02T22:21:10.389Z,17.90
2018-12-02T22:23:42.530Z,17.62
2018-12-02T22:26:14.915Z,17.73
2018-12-02T22:28:48.320Z,17.52
2018-12-02T22:31:21.434Z,17.10
2018-12-02T22:33:53.748Z,18.07
2018-12-02T22:36:26.047Z,18.12
2018-12-02T22:38:59.087Z,19.00
2018-12-02T22:41:31.422Z,18.67
2018-12-02T22:44:05.578Z,19.73
2018-12-02T22:46:37.854Z,19.42
2018-12-02T22:49:10.106Z,18.07
2018-12-02T22:51:42.434Z,18.37
2018-12-02T22:54:14.695Z,21.23
2018-12-02T22:56:46.994Z,20.35
2018-12-02T22:59:19.518Z,22.17
2018-12-02T23:01:56.151Z,23.70
2018-12-02T23:04:28.617Z,22.27
2018-12-02T23:07:00.846Z,24.20
2018-12-02T23:09:34.026Z,24.50
2018-12-02T23:12:06.395Z,26.62
2018-12-02T23:14:38.582Z,25.20
2018-12-02T23:17:21.201Z,28.90
2018-12-02T23:19:53.500Z,27.15
2018-12-02T23:22:26.778Z,31.30
2018-12-02T23:24:59.848Z,33.10
2018-12-02T23:27:32.152Z,29.92
2018-12-02T23:30:04.371Z,31.60
2018-12-02T23:32:36.707Z,33.98
2018-12-02T23:35:09.924Z,34.60
2018-12-02T23:37:45.035Z,35.80
2018-12-02T23:40:23.698Z,39.67
2018-12-02T23:42:56.053Z,43.17
2018-12-02T23:45:28.243Z,44.80
2018-12-02T23:48:01.372Z,44.30
2018-12-02T23:50:33.623Z,44.67
2018-12-02T23:53:06.127Z,41.47
2018-12-02T23:55:39.336Z,41.27
2018-12-02T23:58:11.711Z,42.53
